Time;durP1;ratioP1;P1;durP2;ratioP2;P2;SDS_P1;SDS_P2;PMS_P1;PMS_P2;Temp;Humidity;BMP_temperature;BMP_pressure;BME280_temperature;BME280_humidity;BME280_pressure;Samples;Min_cycle;Max_cycle;Signal;HPM_P1;HPM_P2
2022/03/25 00:02:02;;;;;;;1.27;1.00;;;19.40;72.60;;;;;;5064028;28;20448;-59
2022/03/25 00:04:35;;;;;;;1.40;1.30;;;19.30;72.70;;;;;;5043150;28;20512;-59
2022/03/25 00:07:07;;;;;;;2.10;1.37;;;19.40;77.50;;;;;;5044585;28;20512;-59
2022/03/25 00:09:38;;;;;;;3.27;1.30;;;19.40;80.60;;;;;;5054783;28;20765;-59
2022/03/25 00:12:09;;;;;;;1.80;0.73;;;19.50;76.50;;;;;;5066128;28;20996;-59
2022/03/25 00:14:40;;;;;;;1.30;1.10;;;19.50;75.60;;;;;;5062881;28;20471;-59
2022/03/25 00:17:11;;;;;;;1.27;0.80;;;19.60;76.90;;;;;;5066510;28;20470;-59
2022/03/25 00:19:44;;;;;;;0.87;0.87;;;19.60;73.20;;;;;;5066235;28;20500;-60
2022/03/25 00:22:15;;;;;;;1.53;0.67;;;19.60;73.20;;;;;;5070514;28;20430;-60
2022/03/25 00:24:47;;;;;;;0.83;0.70;;;19.60;75.10;;;;;;5074502;28;20470;-58
2022/03/25 00:27:18;;;;;;;1.10;0.80;;;19.50;78.20;;;;;;5066383;28;20648;-59
2022/03/25 00:29:50;;;;;;;1.57;1.00;;;19.60;74.10;;;;;;5057908;28;20431;-58
2022/03/25 00:32:21;;;;;;;1.57;1.03;;;19.60;73.30;;;;;;5061576;28;20539;-59
2022/03/25 00:34:55;;;;;;;0.80;0.80;;;19.60;76.40;;;;;;5062013;28;20518;-59
2022/03/25 00:37:26;;;;;;;1.13;0.87;;;19.30;77.00;;;;;;5064108;28;20422;-60
2022/03/25 00:39:57;;;;;;;1.37;1.20;;;19.20;78.20;;;;;;5068244;28;20410;-59
2022/03/25 00:42:30;;;;;;;0.90;0.90;;;19.20;77.90;;;;;;5068567;28;20448;-60
2022/03/25 00:45:03;;;;;;;2.13;1.00;;;19.20;78.20;;;;;;5062252;28;20435;-60
2022/03/25 00:47:36;;;;;;;1.23;1.00;;;19.20;78.40;;;;;;5061775;28;20464;-60
2022/03/25 00:50:10;;;;;;;2.23;1.20;;;19.20;80.60;;;;;;5061694;28;20629;-60
2022/03/25 00:52:41;;;;;;;1.20;1.10;;;19.20;79.20;;;;;;5046559;28;20908;-60
2022/03/25 00:55:13;;;;;;;2.57;1.10;;;19.10;76.60;;;;;;5063357;28;20462;-61
2022/03/25 00:57:44;;;;;;;1.47;1.00;;;19.10;79.00;;;;;;5060431;28;20578;-60
2022/03/25 01:00:15;;;;;;;1.30;1.20;;;19.00;80.60;;;;;;5062189;28;20419;-60
2022/03/25 01:02:46;;;;;;;3.17;2.70;;;19.00;80.40;;;;;;5061458;28;20427;-62
2022/03/25 01:05:19;;;;;;;1.70;1.60;;;18.90;78.80;;;;;;5061529;28;20431;-62
2022/03/25 01:07:50;;;;;;;1.03;0.93;;;18.80;81.40;;;;;;5061324;28;20419;-61
2022/03/25 01:10:24;;;;;;;1.20;1.10;;;18.70;81.40;;;;;;5063465;28;20438;-62
2022/03/25 01:12:55;;;;;;;0.90;0.90;;;18.70;83.20;;;;;;5060423;28;20931;-61
2022/03/25 01:15:29;;;;;;;1.60;1.10;;;18.50;83.20;;;;;;5066064;28;20465;-62
2022/03/25 01:18:00;;;;;;;1.20;1.10;;;18.40;83.80;;;;;;5056409;28;20461;-62
2022/03/25 01:20:39;;;;;;;1.93;1.03;;;18.40;87.00;;;;;;5061285;28;20819;-61
2022/03/25 01:23:10;;;;;;;1.27;1.10;;;18.30;87.20;;;;;;5062322;28;20508;-62
2022/03/25 01:25:41;;;;;;;1.20;1.10;;;18.10;90.00;;;;;;5061368;28;20456;-61
2022/03/25 01:28:13;;;;;;;1.00;0.90;;;18.00;87.60;;;;;;5059893;28;20560;-59
2022/03/25 01:30:47;;;;;;;2.03;1.40;;;17.90;86.60;;;;;;5060009;28;20563;-61
2022/03/25 01:33:19;;;;;;;1.97;1.87;;;17.90;87.20;;;;;;5060612;28;20427;-60
2022/03/25 01:35:52;;;;;;;1.87;1.77;;;17.80;88.60;;;;;;5060622;28;20444;-60
2022/03/25 01:38:23;;;;;;;1.90;1.70;;;17.70;90.00;;;;;;5061128;28;20449;-60
2022/03/25 01:40:53;;;;;;;1.53;1.30;;;17.70;90.60;;;;;;5066317;28;20441;-62
2022/03/25 01:43:24;;;;;;;2.90;1.70;;;17.60;90.10;;;;;;5064005;28;20435;-59
2022/03/25 01:45:55;;;;;;;1.33;1.20;;;17.50;88.70;;;;;;5068992;28;20452;-58
2022/03/25 01:48:26;;;;;;;1.83;1.20;;;17.40;90.80;;;;;;5072839;28;20463;-58
2022/03/25 01:51:03;;;;;;;1.47;1.20;;;17.30;91.00;;;;;;5067586;28;20988;-58
2022/03/25 01:53:34;;;;;;;5.07;1.43;;;17.20;90.60;;;;;;5073467;28;20444;-59
2022/03/25 01:56:06;;;;;;;2.00;1.80;;;17.10;91.60;;;;;;5068182;28;21301;-59
2022/03/25 01:58:37;;;;;;;1.50;1.40;;;17.00;88.70;;;;;;5067669;28;20445;-59
2022/03/25 02:01:08;;;;;;;1.80;1.40;;;16.90;87.90;;;;;;5069076;28;20451;-60
2022/03/25 02:03:39;;;;;;;1.57;1.47;;;16.90;85.00;;;;;;5064765;28;20422;-60
2022/03/25 02:06:12;;;;;;;1.57;1.33;;;16.80;90.60;;;;;;5067210;28;20591;-60
2022/03/25 02:08:43;;;;;;;3.27;1.80;;;16.70;90.70;;;;;;5070942;28;20415;-59
2022/03/25 02:11:14;;;;;;;3.30;1.70;;;16.60;91.50;;;;;;5070185;28;20452;-60
2022/03/25 02:13:44;;;;;;;1.83;1.30;;;16.40;92.90;;;;;;5066558;28;20463;-59
2022/03/25 02:16:15;;;;;;;1.33;1.23;;;16.20;92.40;;;;;;5067346;28;20467;-60
2022/03/25 02:18:47;;;;;;;1.53;1.20;;;16.10;91.40;;;;;;5066542;28;20499;-59
2022/03/25 02:21:20;;;;;;;2.37;1.20;;;16.10;90.10;;;;;;5067208;28;20440;-60
2022/03/25 02:23:53;;;;;;;2.07;1.40;;;16.10;88.40;;;;;;5065708;28;20823;-59
2022/03/25 02:26:24;;;;;;;4.53;1.53;;;15.90;88.20;;;;;;5067158;28;20499;-59
2022/03/25 02:28:56;;;;;;;1.73;1.40;;;15.90;90.20;;;;;;5065557;28;20452;-59
2022/03/25 02:31:26;;;;;;;2.10;1.40;;;15.80;86.00;;;;;;5066575;28;20524;-59
2022/03/25 02:34:01;;;;;;;4.00;1.30;;;15.70;88.20;;;;;;5072015;28;20799;-59
2022/03/25 02:36:37;;;;;;;2.40;1.60;;;15.70;88.60;;;;;;5066512;28;20490;-59
2022/03/25 02:39:11;;;;;;;2.27;1.57;;;15.60;90.20;;;;;;5066705;28;20439;-59
2022/03/25 02:41:43;;;;;;;1.73;1.20;;;15.50;90.30;;;;;;5069380;28;20451;-61
2022/03/25 02:44:13;;;;;;;1.43;1.27;;;15.30;90.60;;;;;;5065796;28;20458;-60
2022/03/25 02:46:44;;;;;;;1.70;1.60;;;15.20;90.90;;;;;;5065626;28;21005;-60
2022/03/25 02:49:15;;;;;;;3.50;1.50;;;15.10;90.90;;;;;;5068307;28;20456;-60
2022/03/25 02:51:46;;;;;;;1.70;1.60;;;15.00;88.50;;;;;;5066781;28;20445;-60
2022/03/25 02:54:20;;;;;;;1.50;1.40;;;15.00;90.20;;;;;;5067075;28;20460;-61
2022/03/25 02:56:51;;;;;;;1.20;0.90;;;14.90;90.80;;;;;;5063331;28;20460;-60
2022/03/25 02:59:21;;;;;;;1.53;1.43;;;14.90;88.90;;;;;;5063709;28;20458;-60
2022/03/25 03:01:52;;;;;;;1.00;0.90;;;14.80;92.20;;;;;;5056746;28;20479;-60
2022/03/25 03:04:23;;;;;;;1.20;0.90;;;14.60;93.20;;;;;;5063775;28;20478;-60
2022/03/25 03:06:54;;;;;;;1.10;1.00;;;14.50;92.60;;;;;;5056934;28;20799;-60
2022/03/25 03:09:26;;;;;;;1.67;1.57;;;14.40;92.10;;;;;;5063118;28;20464;-61
2022/03/25 03:11:57;;;;;;;1.63;1.53;;;14.30;91.80;;;;;;5062240;28;20448;-60
2022/03/25 03:14:28;;;;;;;2.00;1.20;;;14.30;92.00;;;;;;5064264;28;20457;-60
2022/03/25 03:16:59;;;;;;;1.00;1.00;;;14.30;94.30;;;;;;5082131;28;20519;-59
2022/03/25 03:19:30;;;;;;;4.30;1.43;;;14.10;93.60;;;;;;5064795;28;21226;-60
2022/03/25 03:22:00;;;;;;;2.70;1.20;;;14.10;93.20;;;;;;5060903;28;20463;-60
2022/03/25 03:24:33;;;;;;;2.20;1.30;;;14.10;93.50;;;;;;5064007;28;20445;-59
2022/03/25 03:27:04;;;;;;;2.07;1.37;;;14.10;92.90;;;;;;5063040;28;20492;-60
2022/03/25 03:29:34;;;;;;;1.30;1.10;;;14.00;92.20;;;;;;5065521;28;20466;-59
2022/03/25 03:32:06;;;;;;;2.30;1.20;;;13.80;95.60;;;;;;5062315;28;21015;-59
2022/03/25 03:34:37;;;;;;;3.47;1.40;;;13.70;97.80;;;;;;5063462;28;20463;-60
2022/03/25 03:37:08;;;;;;;2.37;1.70;;;13.60;94.90;;;;;;5062540;28;20433;-61
2022/03/25 03:39:41;;;;;;;2.40;2.20;;;13.60;94.90;;;;;;5063465;28;20500;-60
2022/03/25 03:42:11;;;;;;;2.33;2.13;;;13.70;96.00;;;;;;5062212;28;20463;-60
2022/03/25 03:44:42;;;;;;;2.70;2.30;;;13.80;96.60;;;;;;5063519;28;20555;-60
2022/03/25 03:47:14;;;;;;;3.50;3.20;;;13.80;97.20;;;;;;5062617;28;20542;-61
2022/03/25 03:49:44;;;;;;;7.00;4.33;;;13.80;99.90;;;;;;5063276;28;20460;-61
2022/03/25 03:52:15;;;;;;;5.90;4.20;;;13.90;99.90;;;;;;5063134;28;20453;-61
2022/03/25 03:54:47;;;;;;;5.60;5.03;;;13.80;99.90;;;;;;5063739;28;20468;-60
2022/03/25 03:57:18;;;;;;;5.60;4.80;;;13.80;99.90;;;;;;5059473;28;20460;-60
2022/03/25 03:59:50;;;;;;;5.63;5.03;;;13.90;99.90;;;;;;5065699;28;20468;-60
2022/03/25 04:02:21;;;;;;;10.43;6.13;;;13.80;99.90;;;;;;5061970;28;20452;-60
2022/03/25 04:04:52;;;;;;;6.70;6.00;;;13.80;99.90;;;;;;5058881;28;20464;-60
2022/03/25 04:07:23;;;;;;;7.93;6.00;;;13.80;99.90;;;;;;5052232;28;20574;-59
2022/03/25 04:09:55;;;;;;;6.30;5.70;;;13.90;99.90;;;;;;5062536;28;20436;-61
2022/03/25 04:12:26;;;;;;;8.47;6.13;;;13.90;99.90;;;;;;5063753;28;20453;-61
2022/03/25 04:14:56;;;;;;;7.77;6.57;;;13.80;99.90;;;;;;5061717;28;20467;-59
2022/03/25 04:17:27;;;;;;;8.63;6.07;;;13.80;99.90;;;;;;5062092;28;20459;-61
2022/03/25 04:19:59;;;;;;;6.50;5.47;;;13.70;99.90;;;;;;5061314;28;20480;-59
2022/03/25 04:22:30;;;;;;;9.50;6.77;;;13.70;99.90;;;;;;5061964;28;20448;-59
2022/03/25 04:25:02;;;;;;;8.13;7.40;;;13.60;99.90;;;;;;5062756;28;20479;-59
2022/03/25 04:27:33;;;;;;;7.07;6.40;;;13.50;99.90;;;;;;5061028;28;20476;-61
2022/03/25 04:30:04;;;;;;;7.60;6.90;;;13.50;99.90;;;;;;5064573;28;20452;-60
2022/03/25 04:32:35;;;;;;;7.87;7.03;;;13.50;99.90;;;;;;5062376;28;20452;-58
2022/03/25 04:35:06;;;;;;;8.10;6.73;;;13.40;99.90;;;;;;5062391;28;20470;-58
2022/03/25 04:37:38;;;;;;;7.77;6.97;;;13.40;99.90;;;;;;5061929;28;20540;-59
2022/03/25 04:40:11;;;;;;;8.53;7.63;;;13.40;99.90;;;;;;5062266;28;20448;-59
2022/03/25 04:42:42;;;;;;;8.33;5.80;;;13.30;99.90;;;;;;5061313;28;20498;-60
2022/03/25 04:45:13;;;;;;;7.27;6.53;;;13.20;99.90;;;;;;5061490;28;20463;-60
2022/03/25 04:47:44;;;;;;;7.87;7.10;;;13.20;99.90;;;;;;5060204;28;20566;-59
2022/03/25 04:50:15;;;;;;;7.90;6.60;;;13.10;99.90;;;;;;5062527;28;20456;-60
2022/03/25 04:52:47;;;;;;;8.73;6.50;;;13.10;99.90;;;;;;5062283;28;20440;-59
2022/03/25 04:55:21;;;;;;;7.60;6.73;;;13.00;99.90;;;;;;5062399;28;20459;-59
2022/03/25 04:57:52;;;;;;;7.20;6.50;;;13.00;99.90;;;;;;5047747;28;20544;-60
2022/03/25 05:00:22;;;;;;;7.23;6.57;;;12.90;99.90;;;;;;5061883;28;20803;-60
2022/03/25 05:02:53;;;;;;;6.67;6.07;;;12.80;99.90;;;;;;5061506;28;20452;-60
2022/03/25 05:05:25;;;;;;;6.90;6.20;;;12.70;99.90;;;;;;5062330;28;20448;-59
2022/03/25 05:07:56;;;;;;;7.60;6.83;;;12.60;99.90;;;;;;5061260;28;20806;-59
2022/03/25 05:10:30;;;;;;;8.23;6.17;;;12.50;99.90;;;;;;5062218;28;20475;-60
2022/03/25 05:13:21;;;;;;;7.20;6.47;;;12.40;99.90;;;;;;5061082;28;20573;-59
2022/03/25 05:15:51;;;;;;;7.37;5.97;;;12.30;99.90;;;;;;5061861;28;20463;-59
2022/03/25 05:18:22;;;;;;;6.13;5.63;;;12.30;99.90;;;;;;5059541;28;20476;-60
2022/03/25 05:20:53;;;;;;;8.00;6.80;;;12.20;99.90;;;;;;5061659;28;20455;-59
2022/03/25 05:23:24;;;;;;;7.90;6.43;;;12.10;99.90;;;;;;5056364;28;20445;-60
2022/03/25 05:25:57;;;;;;;6.80;5.60;;;12.10;99.90;;;;;;5061775;28;20559;-59
2022/03/25 05:28:29;;;;;;;6.50;5.77;;;12.00;99.90;;;;;;5060150;28;20966;-59
2022/03/25 05:31:00;;;;;;;9.43;6.70;;;12.00;99.90;;;;;;5061495;28;20460;-60
2022/03/25 05:33:31;;;;;;;8.13;7.33;;;11.90;99.90;;;;;;5072021;28;20456;-59
2022/03/25 05:36:02;;;;;;;8.00;6.40;;;11.90;99.90;;;;;;5061742;28;20448;-59
2022/03/25 05:38:33;;;;;;;7.87;6.90;;;11.90;99.90;;;;;;5061284;28;20459;-60
2022/03/25 05:41:07;;;;;;;7.50;6.23;;;11.90;99.90;;;;;;5062062;28;20436;-60
2022/03/25 05:43:38;;;;;;;6.20;5.60;;;11.90;99.90;;;;;;5062101;28;20452;-59
2022/03/25 05:46:09;;;;;;;6.80;6.20;;;11.80;99.90;;;;;;5062766;28;20455;-59
2022/03/25 05:48:40;;;;;;;7.50;6.70;;;11.80;99.90;;;;;;5061052;28;20554;-59
2022/03/25 05:51:14;;;;;;;7.47;6.20;;;11.90;99.90;;;;;;5061737;28;20472;-59
2022/03/25 05:53:45;;;;;;;8.57;6.90;;;11.90;99.90;;;;;;5060637;28;20939;-60
2022/03/25 05:56:18;;;;;;;8.23;7.30;;;11.90;99.90;;;;;;5061849;28;20448;-59
2022/03/25 05:58:49;;;;;;;6.77;6.17;;;11.90;99.90;;;;;;5060234;28;20518;-59
2022/03/25 06:01:23;;;;;;;8.00;6.77;;;11.90;99.90;;;;;;5061786;28;20460;-59
2022/03/25 06:03:54;;;;;;;7.30;6.60;;;11.90;99.90;;;;;;5061515;28;20572;-59
2022/03/25 06:06:26;;;;;;;6.40;5.80;;;11.80;99.90;;;;;;5061617;28;20464;-60
2022/03/25 06:08:57;;;;;;;7.73;6.67;;;11.80;99.90;;;;;;5051335;28;20492;-60
2022/03/25 06:11:30;;;;;;;9.17;7.20;;;11.80;99.90;;;;;;5061854;28;20452;-59
2022/03/25 06:14:01;;;;;;;11.07;7.23;;;11.80;99.90;;;;;;5060677;28;20460;-59
2022/03/25 06:16:32;;;;;;;7.57;6.80;;;11.80;99.90;;;;;;5061797;28;20467;-60
2022/03/25 06:19:05;;;;;;;9.50;7.50;;;11.80;99.90;;;;;;5061080;28;20818;-59
2022/03/25 06:21:36;;;;;;;8.40;7.13;;;11.80;99.90;;;;;;5061371;28;20456;-59
2022/03/25 06:24:07;;;;;;;8.17;7.17;;;11.80;99.90;;;;;;5061378;28;20935;-59
2022/03/25 06:26:40;;;;;;;8.33;7.53;;;11.70;99.90;;;;;;5061034;28;20448;-59
2022/03/25 06:29:11;;;;;;;8.07;6.43;;;11.70;99.90;;;;;;5061237;28;20492;-59
2022/03/25 06:31:41;;;;;;;8.40;6.00;;;11.60;99.90;;;;;;5064930;28;20459;-59
2022/03/25 06:34:12;;;;;;;7.50;6.80;;;11.60;99.90;;;;;;5065047;28;20452;-59
2022/03/25 06:36:44;;;;;;;7.03;5.93;;;11.60;99.90;;;;;;5065195;28;20448;-59
2022/03/25 06:39:14;;;;;;;7.73;7.00;;;11.60;99.90;;;;;;5065313;28;20455;-59
2022/03/25 06:41:47;;;;;;;6.83;6.20;;;11.50;99.90;;;;;;5064097;28;20466;-60
2022/03/25 06:44:18;;;;;;;6.77;6.07;;;11.50;99.90;;;;;;5064652;28;20504;-59
2022/03/25 06:46:48;;;;;;;7.10;6.43;;;11.50;99.90;;;;;;5064762;28;20505;-59
2022/03/25 06:49:20;;;;;;;7.87;6.60;;;11.50;99.90;;;;;;5064842;28;20509;-59
2022/03/25 06:51:51;;;;;;;7.47;6.67;;;11.40;99.90;;;;;;5064307;28;20459;-59
2022/03/25 06:54:22;;;;;;;7.40;5.83;;;11.30;99.90;;;;;;5064933;28;20509;-59
2022/03/25 06:56:55;;;;;;;9.13;6.13;;;11.30;99.90;;;;;;5066679;28;20582;-59
2022/03/25 06:59:27;;;;;;;6.33;5.73;;;11.30;99.90;;;;;;5066694;28;20914;-59
2022/03/25 07:01:58;;;;;;;7.67;6.03;;;11.20;99.90;;;;;;5064217;28;20547;-60
2022/03/25 07:04:30;;;;;;;6.63;6.03;;;11.10;99.90;;;;;;5074650;28;20473;-59
2022/03/25 07:07:01;;;;;;;6.87;6.20;;;11.00;99.90;;;;;;5067822;28;20879;-60
2022/03/25 07:09:32;;;;;;;7.37;6.60;;;11.00;99.90;;;;;;5053718;28;20545;-60
2022/03/25 07:12:05;;;;;;;9.50;6.67;;;10.90;99.90;;;;;;5062928;28;20539;-59
2022/03/25 07:14:36;;;;;;;7.17;6.40;;;10.90;99.90;;;;;;5063856;28;20453;-59
2022/03/25 07:17:07;;;;;;;7.73;7.07;;;10.80;99.90;;;;;;5063856;28;20445;-59
2022/03/25 07:19:38;;;;;;;7.27;6.57;;;10.80;99.90;;;;;;5063594;28;20613;-59
2022/03/25 07:22:09;;;;;;;8.00;7.13;;;10.80;99.90;;;;;;5063979;28;20536;-59
2022/03/25 07:24:39;;;;;;;12.23;7.27;;;10.80;99.90;;;;;;5064274;28;20527;-59
2022/03/25 07:27:12;;;;;;;8.40;6.40;;;10.70;99.90;;;;;;5063010;28;20463;-58
2022/03/25 07:29:42;;;;;;;6.47;5.87;;;10.70;99.90;;;;;;5063406;28;20543;-59
2022/03/25 07:32:13;;;;;;;8.67;6.57;;;10.70;99.90;;;;;;5063318;28;20456;-58
2022/03/25 07:34:44;;;;;;;7.20;6.60;;;10.60;99.90;;;;;;5063806;28;20576;-59
2022/03/25 07:37:15;;;;;;;6.90;6.20;;;10.70;99.90;;;;;;5064052;28;20437;-59
2022/03/25 07:39:46;;;;;;;8.10;6.60;;;10.70;99.90;;;;;;5064334;28;20761;-59
2022/03/25 07:42:22;;;;;;;8.03;7.23;;;10.70;99.90;;;;;;5061177;28;20511;-59
2022/03/25 07:44:54;;;;;;;8.03;7.23;;;10.70;99.90;;;;;;5062596;28;20459;-59
2022/03/25 07:47:25;;;;;;;8.33;7.33;;;10.70;99.90;;;;;;5063284;28;20566;-59
2022/03/25 07:49:55;;;;;;;7.73;6.93;;;10.70;99.90;;;;;;5063488;28;20595;-59
2022/03/25 07:52:26;;;;;;;9.50;7.23;;;10.70;99.90;;;;;;5063239;28;20486;-59
2022/03/25 07:55:01;;;;;;;9.87;8.40;;;10.70;99.90;;;;;;5048548;28;20519;-60
2022/03/25 07:57:34;;;;;;;13.17;8.10;;;10.70;99.90;;;;;;5061919;28;20452;-59
2022/03/25 08:00:11;;;;;;;9.90;7.47;;;10.70;99.90;;;;;;5063012;28;20452;-59
2022/03/25 08:02:42;;;;;;;8.43;7.53;;;10.60;99.90;;;;;;5060818;28;20455;-59
2022/03/25 08:05:14;;;;;;;10.47;8.27;;;10.70;99.90;;;;;;5063489;28;20452;-59
2022/03/25 08:07:48;;;;;;;8.57;7.77;;;10.60;99.90;;;;;;5062701;28;20445;-59
2022/03/25 08:10:21;;;;;;;14.90;8.80;;;10.60;99.90;;;;;;5066441;28;20598;-59
2022/03/25 08:12:54;;;;;;;8.57;7.77;;;10.50;99.90;;;;;;5061339;28;20965;-59
2022/03/25 08:15:25;;;;;;;8.80;7.63;;;10.50;99.90;;;;;;5063098;28;20449;-59
2022/03/25 08:17:58;;;;;;;9.00;7.47;;;10.40;99.90;;;;;;5062510;28;20942;-59
2022/03/25 08:20:33;;;;;;;9.77;7.77;;;10.30;99.90;;;;;;5062472;28;20472;-59
2022/03/25 08:23:04;;;;;;;8.73;7.83;;;10.30;99.90;;;;;;5062059;28;20437;-59
2022/03/25 08:28:25;;;;;;;8.07;7.27;;;10.30;99.90;;;;;;5061977;28;20452;-59
2022/03/25 08:31:00;;;;;;;7.90;7.10;;;10.20;99.90;;;;;;5062015;28;20907;-59
2022/03/25 08:33:31;;;;;;;8.73;7.80;;;10.20;99.90;;;;;;5052605;28;20460;-59
2022/03/25 08:36:02;;;;;;;9.83;8.03;;;10.20;99.90;;;;;;5062147;28;20555;-59
2022/03/25 08:38:33;;;;;;;8.70;7.80;;;10.10;99.90;;;;;;5062360;28;20455;-59
2022/03/25 08:41:04;;;;;;;10.00;8.00;;;10.10;99.90;;;;;;5062468;28;20474;-59
2022/03/25 08:43:41;;;;;;;10.10;7.63;;;10.20;99.90;;;;;;5061607;28;20452;-59
2022/03/25 08:46:12;;;;;;;11.77;8.53;;;10.10;99.90;;;;;;5062793;28;20535;-59
2022/03/25 08:48:45;;;;;;;9.27;7.70;;;10.10;99.90;;;;;;5061825;28;20451;-59
2022/03/25 08:51:16;;;;;;;8.40;7.50;;;10.10;99.90;;;;;;5073196;28;20571;-59
2022/03/25 08:53:47;;;;;;;8.37;7.60;;;10.00;99.90;;;;;;5061791;28;20635;-59
2022/03/25 08:56:18;;;;;;;8.50;7.70;;;10.00;99.90;;;;;;5063126;28;20506;-60
2022/03/25 08:58:54;;;;;;;9.77;8.83;;;10.00;99.90;;;;;;5064302;28;21130;-59
2022/03/25 09:01:25;;;;;;;9.60;8.50;;;10.00;99.90;;;;;;5064783;28;20483;-59
2022/03/25 09:03:57;;;;;;;9.80;8.40;;;10.00;99.90;;;;;;5064395;28;20451;-59
2022/03/25 09:06:28;;;;;;;10.67;9.60;;;10.00;99.90;;;;;;5058425;28;20551;-59
2022/03/25 09:08:58;;;;;;;9.20;7.97;;;9.90;99.90;;;;;;5061899;28;20530;-59
2022/03/25 09:11:30;;;;;;;9.53;8.43;;;9.90;99.90;;;;;;5063651;28;20484;-59
2022/03/25 09:14:03;;;;;;;9.67;8.27;;;9.90;99.90;;;;;;5065285;28;20455;-59
2022/03/25 09:16:34;;;;;;;8.03;7.33;;;9.80;99.90;;;;;;5070514;28;20462;-60
2022/03/25 09:19:05;;;;;;;9.23;8.33;;;9.80;99.90;;;;;;5060297;28;20484;-59
2022/03/25 09:21:36;;;;;;;11.33;8.93;;;9.80;99.90;;;;;;5061200;28;20463;-59
2022/03/25 09:24:07;;;;;;;9.73;8.73;;;9.70;99.90;;;;;;5061999;28;20449;-59
2022/03/25 09:26:38;;;;;;;9.10;8.20;;;9.70;99.90;;;;;;5062530;28;20903;-59
2022/03/25 09:29:11;;;;;;;9.63;8.60;;;9.70;99.90;;;;;;5061854;28;20453;-59
2022/03/25 09:31:42;;;;;;;9.33;8.47;;;9.60;99.90;;;;;;5069369;28;20494;-60
2022/03/25 09:37:01;;;;;;;9.27;8.47;;;9.50;99.90;;;;;;5071247;28;20478;-59
2022/03/25 09:39:32;;;;;;;9.60;8.60;;;9.50;99.90;;;;;;5071905;28;20452;-59
2022/03/25 09:42:04;;;;;;;10.43;9.33;;;9.50;99.90;;;;;;5060450;28;20228;-59
2022/03/25 09:44:39;;;;;;;10.30;9.30;;;9.40;99.90;;;;;;5061686;28;20459;-59
2022/03/25 09:47:10;;;;;;;9.83;8.83;;;9.40;99.90;;;;;;5061266;28;20451;-59
2022/03/25 09:49:41;;;;;;;11.03;9.93;;;9.40;99.90;;;;;;5062919;28;20453;-59
2022/03/25 09:52:12;;;;;;;11.47;9.40;;;9.40;99.90;;;;;;5061499;28;20484;-59
2022/03/25 09:55:03;;;;;;;11.50;9.33;;;9.40;99.90;;;;;;5051983;28;20436;-59
2022/03/25 09:57:34;;;;;;;10.10;9.00;;;9.50;99.90;;;;;;5060688;28;20440;-59
2022/03/25 10:00:08;;;;;;;9.33;8.53;;;9.50;99.90;;;;;;5064940;28;20198;-59
2022/03/25 10:02:38;;;;;;;12.90;9.50;;;9.40;99.90;;;;;;5074509;28;20447;-59
2022/03/25 10:05:17;;;;;;;9.10;8.20;;;9.40;99.90;;;;;;5070561;28;20452;-59
2022/03/25 10:07:49;;;;;;;10.80;8.80;;;9.30;99.90;;;;;;5065245;28;20464;-59
2022/03/25 10:10:22;;;;;;;9.63;8.63;;;9.30;99.90;;;;;;5065532;28;20524;-59
2022/03/25 10:13:00;;;;;;;9.70;8.70;;;9.30;99.90;;;;;;5059354;28;20633;-59
2022/03/25 10:15:37;;;;;;;12.15;8.55;;;9.20;99.90;;;;;;5068878;28;21303;-59
2022/03/25 10:18:08;;;;;;;9.80;8.80;;;9.20;99.90;;;;;;5068701;28;20247;-59
2022/03/25 10:20:41;;;;;;;10.50;9.30;;;9.20;99.90;;;;;;5065556;28;20456;-59
2022/03/25 10:23:14;;;;;;;10.23;9.30;;;9.20;99.90;;;;;;5064629;28;20213;-60
2022/03/25 10:25:47;;;;;;;11.05;9.98;;;9.10;99.90;;;;;;5061996;28;20212;-60
2022/03/25 10:28:30;;;;;;;10.70;9.70;;;9.10;99.90;;;;;;5064650;28;20198;-59
2022/03/25 10:31:04;;;;;;;12.63;9.35;;;9.10;99.90;;;;;;5064952;28;20210;-60
2022/03/25 10:33:36;;;;;;;12.23;10.93;;;9.10;99.90;;;;;;5073599;28;20236;-59
2022/03/25 10:36:09;;;;;;;12.27;11.10;;;9.10;99.90;;;;;;5066348;28;20210;-59
2022/03/25 10:38:48;;;;;;;10.57;9.50;;;9.10;99.90;;;;;;5066414;28;20201;-59
2022/03/25 10:41:20;;;;;;;11.68;10.43;;;9.10;99.90;;;;;;5067102;28;20206;-59
2022/03/25 10:43:59;;;;;;;13.90;10.20;;;9.10;99.90;;;;;;5069872;28;20208;-59
2022/03/25 10:46:36;;;;;;;12.40;11.10;;;9.10;99.90;;;;;;5074200;28;20554;-59
2022/03/25 10:49:08;;;;;;;12.87;10.50;;;9.10;99.90;;;;;;5051855;28;20205;-60
2022/03/25 10:51:41;;;;;;;12.40;11.10;;;9.00;99.90;;;;;;5064887;28;20488;-60
2022/03/25 10:54:13;;;;;;;13.50;10.52;;;9.00;99.90;;;;;;5069470;28;20489;-59
2022/03/25 10:56:46;;;;;;;11.83;10.63;;;9.00;99.90;;;;;;5059096;28;20216;-59
2022/03/25 10:59:27;;;;;;;10.95;9.85;;;9.00;99.90;;;;;;5072466;28;20532;-59
2022/03/25 11:02:01;;;;;;;13.90;9.63;;;8.90;99.90;;;;;;5064066;28;20565;-59
2022/03/25 11:04:33;;;;;;;11.80;10.63;;;8.80;99.90;;;;;;5073955;28;20190;-59
2022/03/25 11:07:04;;;;;;;12.73;10.65;;;8.90;99.90;;;;;;5065870;28;20455;-59
2022/03/25 11:09:35;;;;;;;11.70;10.65;;;8.90;99.90;;;;;;5068931;28;20230;-59
2022/03/25 11:12:07;;;;;;;11.38;10.25;;;8.90;99.90;;;;;;5067381;28;20226;-59
2022/03/25 11:14:38;;;;;;;15.20;11.05;;;8.90;99.90;;;;;;5064365;28;20202;-59
2022/03/25 11:17:12;;;;;;;11.60;10.40;;;9.00;99.90;;;;;;5062566;28;20248;-59
2022/03/25 11:19:46;;;;;;;13.43;10.43;;;8.90;99.90;;;;;;5063733;28;20481;-60
2022/03/25 11:22:19;;;;;;;11.63;10.55;;;8.90;99.90;;;;;;5064156;28;20229;-60
2022/03/25 11:24:53;;;;;;;12.00;10.38;;;9.00;99.90;;;;;;5070438;28;20217;-59
2022/03/25 11:27:26;;;;;;;13.43;11.37;;;9.00;99.90;;;;;;5068464;28;20211;-59
2022/03/25 11:30:00;;;;;;;11.90;10.63;;;9.00;99.90;;;;;;5065068;28;20466;-59
2022/03/25 11:32:32;;;;;;;10.32;9.38;;;9.00;99.90;;;;;;5063145;28;20221;-60
2022/03/25 11:35:22;;;;;;;12.37;10.67;;;9.00;99.90;;;;;;5065929;28;20190;-59
2022/03/25 11:38:18;;;;;;;14.73;11.67;;;9.00;99.90;;;;;;5059779;28;20445;-59
2022/03/25 11:40:50;;;;;;;12.27;10.90;;;9.00;99.90;;;;;;5063970;28;20448;-59
2022/03/25 11:43:22;;;;;;;12.60;11.30;;;8.90;99.90;;;;;;5064613;28;20474;-59
2022/03/25 11:46:09;;;;;;;13.50;11.10;;;9.00;99.90;;;;;;5051820;28;20492;-58
2022/03/25 11:48:43;;;;;;;12.30;11.00;;;9.00;99.90;;;;;;5052964;28;20209;-59
2022/03/25 11:51:33;;;;;;;12.60;11.40;;;9.00;99.90;;;;;;5066493;28;20496;-59
2022/03/25 11:54:24;;;;;;;11.50;10.33;;;9.00;99.90;;;;;;5064026;28;20448;-59
2022/03/25 11:56:54;;;;;;;14.05;11.35;;;9.00;99.90;;;;;;5064007;28;20456;-59
2022/03/25 11:59:25;;;;;;;12.20;10.30;;;9.00;99.90;;;;;;5066295;28;20200;-59
2022/03/25 12:02:27;;;;;;;12.32;11.07;;;9.10;99.90;;;;;;5062940;28;20219;-59
2022/03/25 12:05:00;;;;;;;12.30;11.00;;;9.10;99.90;;;;;;5063972;28;20264;-59
2022/03/25 12:07:31;;;;;;;13.23;11.60;;;9.00;99.90;;;;;;5076086;28;20907;-59
2022/03/25 12:10:03;;;;;;;11.80;10.60;;;9.00;99.90;;;;;;5064322;28;20448;-59
2022/03/25 12:12:58;;;;;;;13.03;11.37;;;9.00;99.90;;;;;;5062687;28;21042;-59
2022/03/25 12:15:45;;;;;;;12.10;11.00;;;9.10;99.90;;;;;;5063123;28;20571;-58
2022/03/25 12:18:42;;;;;;;11.48;10.35;;;9.20;99.90;;;;;;5066900;28;20452;-59
2022/03/25 12:21:46;;;;;;;13.00;10.30;;;9.20;99.90;;;;;;5066765;28;20539;-58
2022/03/25 12:24:20;;;;;;;13.52;11.13;;;9.20;99.90;;;;;;5058953;28;20452;-59
2022/03/25 12:26:57;;;;;;;12.27;10.90;;;9.10;99.90;;;;;;5062902;28;20188;-59
2022/03/25 12:29:31;;;;;;;12.80;11.17;;;9.10;99.90;;;;;;5066681;28;20460;-61
2022/03/25 12:32:13;;;;;;;13.20;11.33;;;9.20;99.90;;;;;;5072737;28;20475;-59
2022/03/25 12:34:56;;;;;;;15.73;10.97;;;9.20;99.90;;;;;;5051648;28;20462;-58
2022/03/25 12:37:33;;;;;;;12.82;10.70;;;9.30;99.90;;;;;;5073591;28;20469;-61
2022/03/25 12:40:13;;;;;;;12.93;11.73;;;9.30;99.90;;;;;;5059243;28;20208;-59
2022/03/25 12:42:45;;;;;;;12.03;10.73;;;9.30;99.90;;;;;;5070428;28;20460;-59
2022/03/25 12:45:16;;;;;;;12.57;11.40;;;9.30;99.90;;;;;;5068387;28;21427;-59
2022/03/25 12:47:49;;;;;;;12.10;10.90;;;9.30;99.90;;;;;;5073755;28;20526;-60
2022/03/25 12:50:23;;;;;;;11.57;10.30;;;9.40;99.90;;;;;;5062820;28;20676;-59
2022/03/25 12:53:02;;;;;;;10.60;9.50;;;9.40;99.90;;;;;;5062073;28;20488;-59
2022/03/25 12:55:33;;;;;;;13.40;12.00;;;9.50;99.90;;;;;;5070264;28;20451;-59
2022/03/25 12:58:07;;;;;;;11.13;10.03;;;9.50;99.90;;;;;;5060076;28;20543;-59
2022/03/25 13:00:41;;;;;;;11.33;10.10;;;9.60;99.90;;;;;;5063156;28;20494;-59
2022/03/25 13:03:13;;;;;;;11.20;9.77;;;9.60;99.90;;;;;;5062664;28;20890;-59
2022/03/25 13:05:44;;;;;;;14.40;10.70;;;9.60;99.90;;;;;;5061993;28;20534;-59
2022/03/25 13:08:16;;;;;;;9.80;9.00;;;9.60;99.90;;;;;;5062561;28;20456;-60
2022/03/25 13:10:48;;;;;;;10.87;9.77;;;9.60;99.90;;;;;;5062641;28;20490;-59
2022/03/25 13:13:21;;;;;;;11.07;9.90;;;9.60;99.90;;;;;;5068906;28;20491;-59
2022/03/25 13:15:51;;;;;;;15.27;10.43;;;9.60;99.90;;;;;;5068259;28;20464;-59
2022/03/25 13:18:22;;;;;;;10.63;9.50;;;9.60;99.90;;;;;;5061452;28;20480;-60
2022/03/25 13:20:53;;;;;;;10.20;9.03;;;9.70;99.90;;;;;;5064871;28;20459;-59